Aviation Digital Data Service (ADDS)

Output produced by METARs form (2100 UTC 01 September 2014)
found at http://aviationweather.gov/adds/metars/
 
KGSP 011736Z 0118/0218 23005KT P6SM FEW045 BKN250 
     FM020100 23003KT P6SM FEW050 SCT130 
     FM021300 24006KT P6SM FEW050 BKN120